Time;durP1;ratioP1;P1;durP2;ratioP2;P2;SDS_P1;SDS_P2;PMS_P1;PMS_P2;Temp;Humidity;BMP_temperature;BMP_pressure;BME280_temperature;BME280_humidity;BME280_pressure;Samples;Min_cycle;Max_cycle;Signal;HPM_P1;HPM_P2
2021/12/08 00:00:20;;;;;;;0.10;0.10;;;3.70;99.90;;;;;;4967929;28;20058;-75
2021/12/08 00:02:46;;;;;;;0.10;0.10;;;3.80;99.90;;;;;;4966955;28;20030;-77
2021/12/08 00:05:14;;;;;;;0.10;0.10;;;3.80;99.90;;;;;;4967277;28;20027;-77
2021/12/08 00:07:40;;;;;;;0.10;0.10;;;3.80;99.90;;;;;;4964943;28;20035;-78
2021/12/08 00:13:07;;;;;;;0.10;0.10;;;3.80;99.90;;;;;;4980358;28;20038;-79
2021/12/08 00:15:45;;;;;;;0.20;0.20;;;3.90;99.90;;;;;;4966948;28;20023;-78
2021/12/08 00:18:23;;;;;;;0.20;0.20;;;4.00;99.90;;;;;;4953363;28;20031;-78
2021/12/08 00:20:52;;;;;;;0.40;0.40;;;3.80;99.90;;;;;;4952361;28;20377;-77
2021/12/08 00:23:18;;;;;;;0.10;0.10;;;3.90;99.90;;;;;;4952513;28;20031;-78
2021/12/08 00:25:44;;;;;;;0.20;0.20;;;3.90;99.90;;;;;;4958881;28;20025;-78
2021/12/08 00:28:12;;;;;;;0.10;0.10;;;3.90;99.90;;;;;;4991592;28;20053;-77
2021/12/08 00:30:40;;;;;;;0.10;0.10;;;3.90;99.90;;;;;;4972639;28;20031;-77
2021/12/08 00:33:06;;;;;;;0.28;0.28;;;4.00;99.90;;;;;;4963377;28;20034;-77
2021/12/08 00:35:33;;;;;;;0.10;0.10;;;4.00;99.90;;;;;;4970458;28;20133;-76
2021/12/08 00:37:59;;;;;;;0.10;0.10;;;3.90;99.90;;;;;;4971926;28;20042;-77
2021/12/08 00:40:26;;;;;;;0.10;0.10;;;3.90;99.90;;;;;;4971377;28;20027;-76
2021/12/08 00:42:53;;;;;;;0.10;0.10;;;3.80;99.90;;;;;;4968342;28;20457;-78
2021/12/08 00:45:20;;;;;;;0.10;0.10;;;3.80;99.90;;;;;;4983541;28;20023;-77
2021/12/08 00:47:47;;;;;;;0.10;0.10;;;3.80;99.90;;;;;;4986883;28;20122;-77
2021/12/08 00:50:14;;;;;;;0.10;0.10;;;3.80;99.90;;;;;;4972985;28;20030;-77
2021/12/08 00:52:39;;;;;;;0.10;0.10;;;3.80;99.90;;;;;;4963099;28;20043;-77
2021/12/08 00:55:11;;;;;;;0.10;0.10;;;3.80;99.90;;;;;;4970674;28;20026;-77
2021/12/08 00:57:37;;;;;;;0.98;0.95;;;3.80;99.90;;;;;;4953351;28;20031;-77
2021/12/08 01:00:19;;;;;;;0.10;0.10;;;3.80;99.90;;;;;;4966817;28;20122;-77
2021/12/08 01:02:45;;;;;;;0.10;0.10;;;3.70;99.90;;;;;;4978810;28;20026;-77
2021/12/08 01:05:15;;;;;;;0.10;0.10;;;3.60;99.90;;;;;;4971062;28;20465;-78
2021/12/08 01:07:43;;;;;;;0.10;0.10;;;3.60;99.90;;;;;;4952371;28;20043;-76
2021/12/08 01:10:16;;;;;;;0.20;0.20;;;3.60;99.90;;;;;;4952121;28;20023;-78
2021/12/08 01:12:42;;;;;;;0.10;0.10;;;3.60;99.90;;;;;;4953509;28;20027;-77
2021/12/08 01:15:08;;;;;;;0.10;0.10;;;3.70;99.90;;;;;;4952255;28;20712;-77
2021/12/08 01:17:34;;;;;;;0.10;0.10;;;3.60;99.90;;;;;;4966722;28;20417;-78
2021/12/08 01:20:00;;;;;;;0.10;0.10;;;3.50;99.90;;;;;;4952900;28;20023;-78
2021/12/08 01:22:26;;;;;;;0.10;0.10;;;3.50;99.90;;;;;;4952472;28;20035;-78
2021/12/08 01:24:51;;;;;;;0.10;0.10;;;3.50;99.90;;;;;;4952276;28;20027;-76
2021/12/08 01:27:17;;;;;;;0.20;0.20;;;3.50;99.90;;;;;;4952055;28;20046;-78
2021/12/08 01:29:43;;;;;;;0.20;0.20;;;3.50;99.90;;;;;;4952029;28;20122;-77
2021/12/08 01:32:08;;;;;;;0.10;0.10;;;3.40;99.90;;;;;;4952116;28;20027;-77
2021/12/08 01:34:35;;;;;;;0.10;0.10;;;3.40;99.90;;;;;;4953232;28;20105;-77
2021/12/08 01:37:01;;;;;;;0.10;0.10;;;3.40;99.90;;;;;;4954721;28;20057;-77
2021/12/08 01:39:27;;;;;;;0.10;0.10;;;3.40;99.90;;;;;;4967481;28;20031;-77
2021/12/08 01:41:54;;;;;;;0.10;0.10;;;3.40;99.90;;;;;;4976512;28;20045;-77
2021/12/08 01:47:04;;;;;;;0.10;0.10;;;3.50;99.90;;;;;;4973398;28;20111;-77
2021/12/08 01:49:30;;;;;;;0.10;0.10;;;3.50;99.90;;;;;;4957643;28;20048;-77
2021/12/08 01:51:56;;;;;;;0.10;0.10;;;3.60;99.90;;;;;;4968639;28;20031;-77
2021/12/08 01:54:22;;;;;;;0.10;0.10;;;3.60;99.90;;;;;;4963232;28;20035;-78
2021/12/08 01:56:48;;;;;;;0.35;0.32;;;3.50;99.90;;;;;;4966466;28;20493;-77
2021/12/08 01:59:14;;;;;;;0.10;0.10;;;3.50;99.90;;;;;;4958139;28;20019;-76
2021/12/08 02:01:43;;;;;;;0.10;0.10;;;3.60;99.90;;;;;;4963572;28;20054;-77
2021/12/08 02:04:09;;;;;;;0.10;0.10;;;3.60;99.90;;;;;;4964207;28;20118;-77
2021/12/08 02:06:37;;;;;;;0.10;0.10;;;3.60;99.90;;;;;;4959685;28;20023;-77
2021/12/08 02:09:09;;;;;;;0.10;0.10;;;3.60;99.90;;;;;;4955572;28;20055;-78
2021/12/08 02:11:37;;;;;;;1.40;1.30;;;3.50;99.90;;;;;;4955765;28;20027;-78
2021/12/08 02:14:03;;;;;;;0.10;0.10;;;3.50;99.90;;;;;;4956159;28;20035;-78
2021/12/08 02:16:30;;;;;;;0.20;0.20;;;3.60;99.90;;;;;;4972041;28;20034;-77
2021/12/08 02:18:57;;;;;;;0.10;0.10;;;3.50;99.90;;;;;;4967953;28;20719;-77
2021/12/08 02:21:24;;;;;;;0.10;0.10;;;3.50;99.90;;;;;;4971379;28;20018;-77
2021/12/08 02:23:50;;;;;;;0.10;0.10;;;3.50;99.90;;;;;;4963708;28;20055;-78
2021/12/08 02:26:16;;;;;;;0.10;0.10;;;3.50;99.90;;;;;;4955432;28;20063;-78
2021/12/08 02:28:43;;;;;;;0.10;0.10;;;3.50;99.90;;;;;;4955586;28;20045;-77
2021/12/08 02:31:13;;;;;;;0.10;0.10;;;3.50;99.90;;;;;;4954706;28;20031;-77
2021/12/08 02:47:43;;;;;;;0.10;0.10;;;3.50;99.90;;;;;;4983006;28;20081;-78
2021/12/08 02:50:10;;;;;;;0.10;0.10;;;3.50;99.90;;;;;;4967134;28;20039;-77
2021/12/08 02:52:36;;;;;;;0.10;0.10;;;3.40;99.90;;;;;;4974128;28;20481;-77
2021/12/08 02:55:08;;;;;;;0.10;0.10;;;3.50;99.90;;;;;;4957078;28;20062;-77
2021/12/08 02:57:34;;;;;;;0.10;0.10;;;3.50;99.90;;;;;;4964662;28;20038;-78
2021/12/08 03:00:00;;;;;;;0.13;0.13;;;3.50;99.90;;;;;;4966269;28;20041;-76
2021/12/08 03:02:26;;;;;;;0.10;0.10;;;3.50;99.90;;;;;;4973525;28;20099;-78
2021/12/08 03:04:52;;;;;;;0.10;0.10;;;3.50;99.90;;;;;;4970343;28;20133;-77
2021/12/08 03:07:18;;;;;;;0.30;0.30;;;3.40;99.90;;;;;;4975938;28;20026;-78
2021/12/08 03:09:44;;;;;;;0.10;0.10;;;3.50;99.90;;;;;;4980569;28;20493;-78
2021/12/08 03:12:10;;;;;;;0.10;0.10;;;3.50;99.90;;;;;;4970144;28;20057;-77
2021/12/08 03:14:36;;;;;;;0.10;0.10;;;3.50;99.90;;;;;;4966720;28;20058;-78
2021/12/08 03:17:06;;;;;;;0.10;0.10;;;3.60;99.90;;;;;;4971677;28;20067;-77
2021/12/08 03:19:32;;;;;;;0.10;0.10;;;3.50;99.90;;;;;;4954129;29;20143;-78
2021/12/08 03:21:58;;;;;;;0.10;0.10;;;3.60;99.90;;;;;;4981590;28;20483;-77
2021/12/08 03:24:35;;;;;;;0.10;0.10;;;3.60;99.90;;;;;;4955196;28;20114;-77
2021/12/08 03:29:48;;;;;;;0.10;0.10;;;3.50;99.90;;;;;;4963045;28;20065;-77
2021/12/08 03:32:17;;;;;;;0.13;0.13;;;3.50;99.90;;;;;;4968371;28;20098;-77
2021/12/08 03:34:51;;;;;;;0.10;0.10;;;3.50;99.90;;;;;;4990670;28;20030;-77
2021/12/08 03:37:22;;;;;;;0.10;0.10;;;3.50;99.90;;;;;;4966401;28;20044;-77
2021/12/08 03:39:50;;;;;;;0.10;0.10;;;3.50;99.90;;;;;;4983193;28;20049;-78
2021/12/08 03:42:17;;;;;;;0.10;0.10;;;3.50;99.90;;;;;;4974713;28;20026;-77
2021/12/08 03:44:43;;;;;;;0.10;0.10;;;3.50;99.90;;;;;;4987154;28;20023;-78
2021/12/08 03:47:15;;;;;;;0.10;0.10;;;3.60;99.90;;;;;;4976810;28;20485;-78
2021/12/08 03:49:44;;;;;;;0.10;0.10;;;3.70;99.90;;;;;;4968084;28;20097;-79
2021/12/08 03:52:10;;;;;;;0.10;0.10;;;3.70;99.90;;;;;;4972171;28;20065;-77
2021/12/08 03:54:36;;;;;;;0.10;0.10;;;3.70;99.90;;;;;;4975400;28;20026;-78
2021/12/08 03:57:03;;;;;;;0.10;0.10;;;3.80;99.90;;;;;;4970067;28;20038;-78
2021/12/08 03:59:28;;;;;;;0.10;0.10;;;3.80;99.90;;;;;;4956629;28;20027;-78
2021/12/08 04:01:54;;;;;;;0.10;0.10;;;3.80;99.90;;;;;;4954572;28;20031;-78
2021/12/08 04:04:25;;;;;;;0.10;0.10;;;3.80;99.90;;;;;;4973615;28;20515;-78
2021/12/08 04:06:52;;;;;;;0.32;0.32;;;3.90;99.90;;;;;;4982322;28;20473;-78
2021/12/08 04:09:42;;;;;;;0.10;0.10;;;3.90;99.90;;;;;;4953360;28;20059;-78
2021/12/08 04:12:10;;;;;;;0.10;0.10;;;3.90;99.90;;;;;;4953442;28;20035;-78
2021/12/08 04:14:39;;;;;;;0.10;0.10;;;3.90;99.90;;;;;;4963407;28;20035;-78
2021/12/08 04:17:17;;;;;;;0.10;0.10;;;3.80;99.90;;;;;;4962127;28;21486;-77
2021/12/08 04:19:44;;;;;;;0.10;0.10;;;3.90;99.90;;;;;;4956827;28;20105;-78
2021/12/08 04:22:36;;;;;;;0.10;0.10;;;3.90;99.90;;;;;;4969988;28;20041;-78
2021/12/08 04:25:08;;;;;;;0.10;0.10;;;3.90;99.90;;;;;;4970259;28;20099;-77
2021/12/08 04:27:37;;;;;;;0.10;0.10;;;3.80;99.90;;;;;;4969830;28;20508;-78
2021/12/08 04:30:12;;;;;;;0.10;0.10;;;3.70;99.90;;;;;;4961289;28;20034;-77
2021/12/08 04:32:38;;;;;;;0.10;0.10;;;3.70;99.90;;;;;;4964524;28;20042;-78
2021/12/08 04:35:09;;;;;;;0.10;0.10;;;3.80;99.90;;;;;;4952907;28;20050;-79
2021/12/08 04:37:38;;;;;;;0.10;0.10;;;3.90;99.90;;;;;;4952683;29;20473;-78
2021/12/08 04:40:32;;;;;;;0.10;0.10;;;4.00;99.90;;;;;;4962735;28;20051;-77
2021/12/08 04:43:09;;;;;;;0.10;0.10;;;4.00;99.90;;;;;;4958355;28;20042;-76
2021/12/08 04:46:04;;;;;;;0.10;0.10;;;4.00;99.90;;;;;;4953732;28;20393;-78
2021/12/08 04:51:43;;;;;;;0.10;0.10;;;4.00;99.90;;;;;;4951989;28;20493;-78
2021/12/08 05:08:50;;;;;;;0.10;0.10;;;4.00;99.90;;;;;;4952155;28;20082;-78
2021/12/08 05:11:34;;;;;;;0.10;0.10;;;4.00;99.90;;;;;;4952303;28;20030;-77
2021/12/08 05:14:09;;;;;;;0.10;0.10;;;4.10;99.90;;;;;;4974918;28;20031;-78
2021/12/08 05:16:37;;;;;;;0.10;0.10;;;4.10;99.90;;;;;;4979331;28;20030;-78
2021/12/08 05:19:08;;;;;;;0.10;0.10;;;4.10;99.90;;;;;;4990881;28;20022;-78
2021/12/08 05:21:49;;;;;;;0.10;0.10;;;4.10;99.90;;;;;;4990973;28;20631;-79
2021/12/08 05:24:25;;;;;;;0.10;0.10;;;4.10;99.90;;;;;;4960197;28;20034;-78
2021/12/08 05:26:55;;;;;;;0.10;0.10;;;4.10;99.90;;;;;;4976620;28;20032;-78
2021/12/08 05:29:27;;;;;;;0.10;0.10;;;4.10;99.90;;;;;;4977528;28;20115;-78
2021/12/08 05:31:55;;;;;;;0.10;0.10;;;4.10;99.90;;;;;;4951904;28;20089;-78
2021/12/08 05:34:21;;;;;;;0.10;0.10;;;4.10;99.90;;;;;;4975795;28;20019;-78
2021/12/08 05:36:47;;;;;;;0.10;0.10;;;4.20;99.90;;;;;;4960368;28;20509;-78
2021/12/08 05:39:20;;;;;;;0.10;0.10;;;4.30;99.90;;;;;;4969191;28;20479;-77
2021/12/08 05:41:48;;;;;;;0.10;0.10;;;4.30;99.90;;;;;;4952230;28;20035;-77
2021/12/08 05:44:15;;;;;;;0.10;0.10;;;4.30;99.90;;;;;;4953037;28;20130;-78
2021/12/08 05:46:43;;;;;;;0.43;0.43;;;4.30;99.90;;;;;;4951974;28;20023;-77
2021/12/08 05:49:12;;;;;;;0.10;0.10;;;4.30;99.90;;;;;;4951619;28;20050;-78
2021/12/08 05:51:39;;;;;;;0.10;0.10;;;4.30;99.90;;;;;;4951551;28;20143;-77
2021/12/08 05:54:11;;;;;;;0.10;0.10;;;4.40;99.90;;;;;;4964720;28;20117;-77
2021/12/08 05:56:37;;;;;;;0.10;0.10;;;4.40;99.90;;;;;;4960275;28;20036;-77
2021/12/08 05:59:05;;;;;;;0.17;0.17;;;4.40;99.90;;;;;;4956216;28;20031;-77
2021/12/08 06:01:40;;;;;;;0.10;0.10;;;4.50;99.90;;;;;;4951885;28;20024;-77
2021/12/08 06:04:08;;;;;;;0.10;0.10;;;4.50;99.90;;;;;;4955620;28;20068;-77
2021/12/08 06:06:35;;;;;;;0.10;0.10;;;4.50;99.90;;;;;;4951927;28;20067;-78
2021/12/08 06:09:04;;;;;;;0.10;0.10;;;4.60;99.90;;;;;;4951438;28;20117;-78
2021/12/08 06:11:30;;;;;;;0.10;0.10;;;4.60;99.90;;;;;;4952630;28;20141;-78
2021/12/08 06:14:00;;;;;;;0.10;0.10;;;4.60;99.90;;;;;;4951926;28;20134;-77
2021/12/08 06:16:27;;;;;;;0.10;0.10;;;4.50;99.90;;;;;;4966528;28;20090;-77
2021/12/08 06:18:53;;;;;;;0.10;0.10;;;4.50;99.90;;;;;;5002813;28;20023;-78
2021/12/08 06:21:23;;;;;;;0.10;0.10;;;4.50;99.90;;;;;;4990001;28;20081;-77
2021/12/08 06:23:49;;;;;;;0.10;0.10;;;4.50;99.90;;;;;;4971064;28;20034;-77
2021/12/08 06:26:18;;;;;;;0.20;0.20;;;4.50;99.90;;;;;;4973142;28;20054;-78
2021/12/08 06:28:44;;;;;;;0.10;0.10;;;4.50;99.90;;;;;;4969564;28;20035;-77
2021/12/08 06:31:12;;;;;;;0.10;0.10;;;4.50;99.90;;;;;;4976161;28;20168;-76
2021/12/08 06:33:38;;;;;;;0.10;0.10;;;4.60;99.90;;;;;;4971154;28;20053;-77
2021/12/08 06:36:08;;;;;;;0.13;0.13;;;4.50;99.90;;;;;;4970815;28;20469;-77
2021/12/08 06:38:35;;;;;;;0.10;0.10;;;4.60;99.90;;;;;;4970900;28;20025;-78
2021/12/08 06:41:09;;;;;;;0.10;0.10;;;4.60;99.90;;;;;;4953090;28;20031;-77
2021/12/08 06:43:39;;;;;;;0.10;0.10;;;4.60;99.90;;;;;;4953198;28;20031;-77
2021/12/08 06:46:05;;;;;;;0.30;0.30;;;4.60;99.90;;;;;;4965760;28;20031;-78
2021/12/08 06:48:37;;;;;;;0.10;0.10;;;4.50;99.90;;;;;;4954167;28;20027;-77
2021/12/08 06:51:09;;;;;;;0.10;0.10;;;4.60;99.90;;;;;;4954684;28;20035;-77
2021/12/08 06:53:37;;;;;;;0.10;0.10;;;4.70;99.90;;;;;;4971612;28;20042;-78
2021/12/08 06:56:17;;;;;;;0.10;0.10;;;4.70;99.90;;;;;;4959556;28;20049;-78
2021/12/08 06:58:47;;;;;;;0.10;0.10;;;4.80;99.90;;;;;;4961550;28;20498;-78
2021/12/08 07:09:12;;;;;;;0.10;0.10;;;4.70;99.90;;;;;;4990885;28;20029;-73
2021/12/08 07:11:39;;;;;;;0.10;0.10;;;4.80;99.90;;;;;;4956056;28;20035;-73
2021/12/08 07:14:06;;;;;;;0.10;0.10;;;4.80;99.90;;;;;;4973756;28;20054;-74
2021/12/08 07:16:35;;;;;;;0.10;0.10;;;4.70;99.90;;;;;;4975281;28;20042;-73
2021/12/08 07:19:27;;;;;;;0.10;0.10;;;4.80;99.90;;;;;;4981322;28;20030;-74
2021/12/08 07:21:55;;;;;;;0.10;0.10;;;4.70;99.90;;;;;;4970953;28;20058;-71
2021/12/08 07:24:29;;;;;;;0.10;0.10;;;4.70;99.90;;;;;;4965862;28;20555;-73
2021/12/08 07:26:58;;;;;;;0.10;0.10;;;4.80;99.90;;;;;;4968300;28;20050;-74
2021/12/08 07:29:29;;;;;;;0.10;0.10;;;4.80;99.90;;;;;;4979525;28;20074;-74
2021/12/08 07:32:05;;;;;;;0.10;0.10;;;4.80;99.90;;;;;;4965225;28;20033;-74
2021/12/08 07:34:33;;;;;;;0.10;0.10;;;4.80;99.90;;;;;;4967687;28;20081;-75
2021/12/08 07:37:08;;;;;;;0.10;0.10;;;4.80;99.90;;;;;;4971782;28;20531;-73
2021/12/08 07:39:42;;;;;;;0.10;0.10;;;4.80;99.90;;;;;;4957836;28;20105;-75
2021/12/08 07:42:21;;;;;;;0.10;0.10;;;4.90;99.90;;;;;;4963979;28;20050;-73
2021/12/08 07:44:51;;;;;;;0.15;0.15;;;4.90;99.90;;;;;;4970479;28;20023;-72
2021/12/08 07:47:19;;;;;;;0.10;0.10;;;4.80;99.90;;;;;;4965624;28;20042;-75
2021/12/08 07:49:54;;;;;;;0.10;0.10;;;4.80;99.90;;;;;;4962827;28;20061;-74
2021/12/08 07:52:29;;;;;;;0.10;0.10;;;4.90;99.90;;;;;;4969224;28;20576;-74
2021/12/08 07:54:57;;;;;;;0.10;0.10;;;4.90;99.90;;;;;;4968078;28;20045;-74
2021/12/08 07:57:27;;;;;;;0.10;0.10;;;4.90;99.90;;;;;;4968384;28;20030;-74
2021/12/08 08:00:00;;;;;;;0.10;0.10;;;4.90;99.90;;;;;;4968576;28;20093;-74
2021/12/08 08:02:28;;;;;;;0.10;0.10;;;4.90;99.90;;;;;;4966816;28;20031;-74
2021/12/08 08:04:57;;;;;;;0.10;0.10;;;5.00;99.90;;;;;;4968202;28;20022;-74
2021/12/08 08:07:23;;;;;;;0.10;0.10;;;5.00;99.90;;;;;;4969019;28;20130;-73
2021/12/08 08:09:59;;;;;;;0.10;0.10;;;5.10;99.90;;;;;;4969201;28;20063;-73
2021/12/08 08:12:29;;;;;;;0.10;0.10;;;5.00;99.90;;;;;;4969540;28;20034;-74
2021/12/08 08:15:00;;;;;;;0.10;0.10;;;5.00;99.90;;;;;;4971526;28;20031;-73
2021/12/08 08:17:34;;;;;;;0.10;0.10;;;5.00;99.90;;;;;;4969672;28;20109;-75
2021/12/08 08:20:02;;;;;;;0.68;0.68;;;5.10;99.90;;;;;;4966900;28;20035;-74
2021/12/08 08:22:29;;;;;;;0.10;0.10;;;5.20;99.90;;;;;;4970627;28;20110;-73
2021/12/08 08:24:59;;;;;;;0.10;0.10;;;5.20;99.90;;;;;;4968432;28;20018;-74
2021/12/08 08:27:27;;;;;;;0.10;0.10;;;5.10;99.90;;;;;;4962923;28;20027;-74
2021/12/08 08:29:55;;;;;;;0.10;0.10;;;5.10;99.90;;;;;;4969436;28;20476;-74
2021/12/08 08:32:27;;;;;;;0.45;0.45;;;5.10;99.90;;;;;;4968217;28;20041;-73
2021/12/08 08:34:58;;;;;;;0.10;0.10;;;5.10;99.90;;;;;;4965619;28;20027;-72
2021/12/08 08:37:24;;;;;;;0.32;0.32;;;5.20;99.90;;;;;;4966392;28;20031;-75
2021/12/08 08:39:59;;;;;;;0.08;0.08;;;5.20;99.90;;;;;;4966426;28;20025;-74
2021/12/08 08:42:32;;;;;;;0.10;0.10;;;5.20;99.90;;;;;;4965415;28;20113;-75
2021/12/08 08:45:12;;;;;;;0.10;0.10;;;5.30;99.90;;;;;;4970719;28;20473;-74
2021/12/08 08:48:04;;;;;;;0.10;0.10;;;5.30;99.90;;;;;;4966348;28;20156;-73
2021/12/08 08:50:49;;;;;;;0.10;0.10;;;5.30;99.90;;;;;;4959601;28;20477;-74
2021/12/08 08:53:17;;;;;;;0.10;0.10;;;5.40;99.90;;;;;;4967835;28;20065;-76
2021/12/08 08:55:56;;;;;;;0.10;0.10;;;5.40;99.90;;;;;;4965069;28;20039;-74
2021/12/08 08:58:24;;;;;;;0.10;0.10;;;5.40;99.90;;;;;;4966676;28;20018;-73
2021/12/08 09:01:04;;;;;;;0.10;0.10;;;5.40;99.90;;;;;;4959063;28;20534;-73
2021/12/08 09:03:34;;;;;;;0.10;0.10;;;5.40;99.90;;;;;;4964896;28;20086;-75
2021/12/08 09:06:17;;;;;;;0.10;0.10;;;5.40;99.90;;;;;;4965754;28;20507;-74
2021/12/08 09:08:43;;;;;;;0.10;0.10;;;5.40;99.90;;;;;;4967057;28;20035;-74
2021/12/08 09:11:12;;;;;;;0.10;0.10;;;5.40;99.90;;;;;;4974314;28;20100;-75
2021/12/08 09:13:51;;;;;;;0.30;0.30;;;5.50;99.90;;;;;;4969279;28;20026;-73
2021/12/08 09:16:28;;;;;;;0.10;0.10;;;5.50;99.90;;;;;;4970516;28;20073;-73
2021/12/08 09:19:05;;;;;;;0.10;0.10;;;5.50;99.90;;;;;;4971027;28;20810;-73
2021/12/08 09:21:33;;;;;;;0.13;0.13;;;5.40;99.90;;;;;;4962080;28;20023;-73
2021/12/08 09:24:13;;;;;;;0.10;0.10;;;5.50;99.90;;;;;;4975619;28;20045;-74
2021/12/08 09:26:44;;;;;;;1.95;1.60;;;5.50;99.90;;;;;;4963308;28;20035;-73
2021/12/08 09:29:17;;;;;;;0.10;0.10;;;5.50;99.90;;;;;;4966262;28;20035;-74
2021/12/08 09:31:56;;;;;;;0.50;0.50;;;5.40;99.90;;;;;;4968152;28;20019;-73
2021/12/08 09:34:27;;;;;;;0.10;0.10;;;5.40;99.90;;;;;;4965246;28;20035;-74
2021/12/08 09:37:17;;;;;;;0.10;0.10;;;5.50;99.90;;;;;;4970670;28;20053;-74
2021/12/08 09:39:48;;;;;;;0.10;0.10;;;5.50;99.90;;;;;;4966975;28;20027;-73
2021/12/08 09:42:33;;;;;;;0.10;0.10;;;5.60;99.90;;;;;;4970303;28;20047;-73
2021/12/08 09:45:25;;;;;;;0.10;0.10;;;5.60;99.90;;;;;;4969223;28;20039;-74
2021/12/08 09:47:52;;;;;;;0.10;0.10;;;5.60;99.90;;;;;;4968873;28;20189;-73
2021/12/08 09:50:18;;;;;;;0.05;0.05;;;5.60;99.90;;;;;;4965312;28;20038;-74
2021/12/08 09:52:46;;;;;;;0.10;0.10;;;5.60;99.90;;;;;;4966737;28;20035;-74
2021/12/08 09:55:15;;;;;;;0.10;0.10;;;5.70;99.90;;;;;;4967347;28;20483;-73
2021/12/08 09:57:42;;;;;;;0.10;0.10;;;5.60;99.90;;;;;;4965758;28;20136;-74
2021/12/08 10:00:12;;;;;;;0.10;0.10;;;5.70;99.90;;;;;;4964965;28;20027;-74
2021/12/08 10:02:38;;;;;;;0.00;0.00;;;5.70;99.90;;;;;;4963927;28;20022;-74
2021/12/08 10:05:16;;;;;;;0.10;0.10;;;5.70;99.90;;;;;;4965932;28;20483;-74
2021/12/08 10:07:43;;;;;;;0.30;0.30;;;5.70;99.90;;;;;;4967953;28;20390;-74
2021/12/08 10:10:13;;;;;;;0.10;0.10;;;5.80;99.90;;;;;;4965852;28;20027;-73
2021/12/08 10:12:39;;;;;;;0.10;0.10;;;5.70;99.90;;;;;;4970507;28;20034;-73
2021/12/08 10:15:09;;;;;;;0.10;0.10;;;5.70;99.90;;;;;;4963280;28;20027;-72
2021/12/08 10:17:36;;;;;;;0.10;0.10;;;5.70;99.90;;;;;;4968174;28;20031;-72
2021/12/08 10:20:10;;;;;;;0.10;0.10;;;5.80;99.90;;;;;;4973317;28;20081;-75
2021/12/08 10:22:37;;;;;;;0.10;0.10;;;5.80;99.90;;;;;;4968954;28;20034;-74
2021/12/08 10:25:08;;;;;;;0.10;0.10;;;5.70;99.90;;;;;;4968954;28;20023;-73
2021/12/08 10:28:12;;;;;;;0.10;0.10;;;5.60;99.90;;;;;;4988153;28;20396;-74
2021/12/08 10:30:52;;;;;;;0.30;0.30;;;5.70;99.90;;;;;;4970300;28;20050;-74
2021/12/08 10:36:42;;;;;;;0.30;0.30;;;5.80;99.90;;;;;;4971919;28;20030;-73
2021/12/08 10:39:14;;;;;;;0.10;0.10;;;5.80;99.90;;;;;;4972228;28;20027;-72
2021/12/08 10:41:57;;;;;;;0.10;0.10;;;5.80;99.90;;;;;;4967942;28;20458;-74
2021/12/08 10:44:23;;;;;;;0.10;0.10;;;5.80;99.90;;;;;;4966080;28;20042;-75
2021/12/08 10:46:55;;;;;;;0.10;0.10;;;5.90;99.90;;;;;;4970115;28;20038;-73
2021/12/08 10:54:50;;;;;;;0.10;0.10;;;6.10;99.90;;;;;;5037665;28;20625;-75
2021/12/08 10:57:21;;;;;;;0.10;0.10;;;6.10;99.90;;;;;;5049507;28;20108;-76
2021/12/08 10:59:56;;;;;;;0.10;0.10;;;6.10;99.90;;;;;;5056081;28;20025;-76
2021/12/08 11:02:43;;;;;;;0.10;0.10;;;6.10;99.90;;;;;;5011264;28;20104;-75
2021/12/08 11:05:37;;;;;;;0.10;0.10;;;6.20;99.90;;;;;;5031696;28;20047;-75
2021/12/08 11:08:06;;;;;;;;;;;6.10;99.90;;;;;;5028289;28;20045;-75
2021/12/08 11:12:58;;;;;;;0.10;0.10;;;6.10;99.90;;;;;;5075774;28;20431;-74
2021/12/08 11:15:26;;;;;;;0.10;0.10;;;6.10;99.90;;;;;;5064972;28;20129;-76
2021/12/08 11:18:21;;;;;;;0.10;0.10;;;6.20;99.90;;;;;;5067033;28;20063;-75
2021/12/08 11:21:05;;;;;;;0.10;0.10;;;6.20;99.90;;;;;;5062447;28;20029;-76
2021/12/08 11:23:41;;;;;;;0.10;0.10;;;6.20;99.90;;;;;;5063561;28;20028;-75
2021/12/08 11:26:18;;;;;;;0.10;0.10;;;6.30;99.90;;;;;;5054415;28;20040;-75
2021/12/08 11:28:51;;;;;;;0.10;0.10;;;6.20;99.90;;;;;;5064802;28;20033;-74
2021/12/08 11:31:17;;;;;;;0.10;0.10;;;6.20;99.90;;;;;;5063661;28;20060;-77
2021/12/08 11:33:51;;;;;;;0.10;0.10;;;6.10;99.90;;;;;;5063293;28;20104;-76
2021/12/08 11:36:18;;;;;;;;;;;6.10;99.90;;;;;;5065127;28;20024;-75
2021/12/08 11:38:45;;;;;;;0.10;0.10;;;6.10;99.90;;;;;;5065806;28;19920;-75
2021/12/08 11:41:35;;;;;;;0.10;0.10;;;6.00;99.90;;;;;;5064120;28;20087;-75
2021/12/08 11:44:05;;;;;;;0.10;0.10;;;6.40;99.90;;;;;;5066569;28;20427;-75
2021/12/08 11:46:36;;;;;;;0.10;0.10;;;6.10;99.90;;;;;;5064836;28;20032;-76
2021/12/08 11:49:04;;;;;;;0.10;0.10;;;6.20;99.90;;;;;;5065391;28;20033;-77
2021/12/08 11:51:42;;;;;;;0.10;0.10;;;6.20;99.90;;;;;;5062974;28;20393;-76
2021/12/08 11:54:26;;;;;;;0.10;0.10;;;6.20;99.90;;;;;;5063790;28;20493;-76
2021/12/08 11:56:53;;;;;;;0.10;0.10;;;6.30;99.90;;;;;;5063463;28;20039;-77
2021/12/08 11:59:19;;;;;;;0.10;0.10;;;6.40;99.90;;;;;;5066107;28;20058;-78
2021/12/08 12:01:47;;;;;;;0.10;0.10;;;6.40;99.90;;;;;;5066644;28;20033;-77
2021/12/08 12:04:13;;;;;;;0.10;0.10;;;6.30;99.90;;;;;;5066440;28;20234;-77
2021/12/08 12:06:39;;;;;;;0.10;0.10;;;6.20;99.90;;;;;;5063375;28;20553;-77
2021/12/08 12:09:07;;;;;;;0.10;0.10;;;6.10;99.90;;;;;;5062552;28;20430;-77
2021/12/08 12:11:33;;;;;;;0.10;0.10;;;6.10;99.90;;;;;;5061336;28;20118;-77
2021/12/08 12:14:00;;;;;;;0.10;0.10;;;6.10;99.90;;;;;;5065697;28;20075;-77
2021/12/08 12:16:27;;;;;;;0.10;0.10;;;6.10;99.90;;;;;;5063596;28;20044;-77
2021/12/08 12:18:56;;;;;;;0.10;0.10;;;6.20;99.90;;;;;;5064167;28;20029;-74
2021/12/08 12:21:40;;;;;;;0.10;0.10;;;6.20;99.90;;;;;;5065135;28;20063;-73
2021/12/08 12:24:35;;;;;;;0.10;0.10;;;6.30;99.90;;;;;;5050948;28;20190;-74
2021/12/08 12:27:20;;;;;;;0.17;0.17;;;6.30;99.90;;;;;;5049049;28;20040;-74
2021/12/08 12:30:16;;;;;;;0.10;0.10;;;6.30;99.90;;;;;;5051960;28;20029;-74
2021/12/08 12:32:49;;;;;;;0.13;0.13;;;6.40;99.90;;;;;;5056595;28;20074;-76
2021/12/08 12:35:22;;;;;;;0.10;0.10;;;6.40;99.90;;;;;;5055562;28;20098;-77
2021/12/08 12:37:59;;;;;;;0.32;0.32;;;6.40;99.90;;;;;;5052825;28;20047;-76
2021/12/08 12:40:43;;;;;;;0.10;0.10;;;6.30;99.90;;;;;;5050216;28;20071;-76
2021/12/08 12:43:09;;;;;;;0.10;0.10;;;6.40;99.90;;;;;;5051201;28;20039;-76
2021/12/08 12:45:43;;;;;;;0.10;0.10;;;6.30;99.90;;;;;;5050320;28;20033;-76
2021/12/08 12:48:18;;;;;;;0.82;0.82;;;6.30;99.90;;;;;;5049650;28;20036;-76
2021/12/08 12:51:01;;;;;;;0.10;0.10;;;6.30;99.90;;;;;;5046031;28;20033;-77
2021/12/08 12:53:29;;;;;;;0.10;0.10;;;6.30;99.90;;;;;;5046970;28;20024;-76
2021/12/08 12:55:55;;;;;;;0.00;0.00;;;6.30;99.90;;;;;;5055079;28;20083;-77
2021/12/08 12:58:21;;;;;;;0.10;0.10;;;6.30;99.90;;;;;;5050735;28;20025;-76
2021/12/08 13:01:05;;;;;;;0.10;0.10;;;6.20;99.90;;;;;;5048947;28;20343;-76
2021/12/08 13:03:38;;;;;;;0.10;0.10;;;6.20;99.90;;;;;;5048677;28;20100;-76
2021/12/08 13:06:05;;;;;;;;;;;6.30;99.90;;;;;;5049084;28;20036;-77
2021/12/08 13:08:32;;;;;;;0.10;0.10;;;6.30;99.90;;;;;;5046906;28;20247;-76
2021/12/08 13:11:00;;;;;;;0.10;0.10;;;6.30;99.90;;;;;;5048838;28;20040;-76
2021/12/08 13:13:26;;;;;;;0.10;0.10;;;6.30;99.90;;;;;;5049648;28;20013;-76
2021/12/08 13:15:52;;;;;;;0.10;0.10;;;6.30;99.90;;;;;;5049310;28;20025;-77
2021/12/08 13:18:20;;;;;;;0.10;0.10;;;6.30;99.90;;;;;;5048698;28;20408;-77
2021/12/08 13:20:58;;;;;;;0.10;0.10;;;6.20;99.90;;;;;;5049083;28;20033;-76
2021/12/08 13:23:28;;;;;;;7.03;2.72;;;6.20;99.90;;;;;;5045930;28;20029;-77
2021/12/08 13:29:01;;;;;;;0.10;0.10;;;6.20;99.90;;;;;;5051387;28;20078;-76
2021/12/08 13:31:37;;;;;;;0.10;0.10;;;6.30;99.90;;;;;;5045537;28;20033;-77
2021/12/08 13:34:10;;;;;;;0.10;0.10;;;6.40;99.90;;;;;;5045207;28;20060;-76
2021/12/08 13:36:46;;;;;;;0.10;0.10;;;6.40;99.90;;;;;;5048328;28;20025;-77
2021/12/08 13:39:24;;;;;;;0.10;0.10;;;6.30;99.90;;;;;;5046362;28;20140;-77
2021/12/08 13:41:56;;;;;;;0.17;0.17;;;6.30;99.90;;;;;;5049843;28;20304;-76
2021/12/08 13:44:24;;;;;;;0.10;0.10;;;6.30;99.90;;;;;;5051952;28;20027;-76
2021/12/08 13:46:53;;;;;;;0.10;0.10;;;6.30;99.90;;;;;;5050238;28;20032;-76
2021/12/08 13:49:24;;;;;;;0.10;0.10;;;6.30;99.90;;;;;;5046440;28;20036;-76
2021/12/08 13:52:07;;;;;;;0.10;0.10;;;6.30;99.90;;;;;;5048874;28;20055;-77
2021/12/08 13:54:54;;;;;;;0.65;0.65;;;6.20;99.90;;;;;;5047724;28;20098;-76
2021/12/08 13:57:33;;;;;;;0.10;0.10;;;6.10;99.90;;;;;;5048336;28;20024;-77
2021/12/08 14:00:00;;;;;;;0.10;0.10;;;6.20;99.90;;;;;;5046310;28;20048;-77
2021/12/08 14:02:27;;;;;;;0.00;0.00;;;6.20;99.90;;;;;;5047119;28;20092;-77
2021/12/08 14:05:05;;;;;;;0.10;0.10;;;6.20;99.90;;;;;;5048099;28;20044;-76
2021/12/08 14:07:32;;;;;;;0.10;0.10;;;6.20;99.90;;;;;;5050772;28;20033;-76
2021/12/08 14:10:10;;;;;;;0.10;0.10;;;6.20;99.90;;;;;;5048771;28;20033;-76
2021/12/08 14:12:44;;;;;;;0.00;0.00;;;6.10;99.90;;;;;;5043980;28;20025;-76
2021/12/08 14:15:15;;;;;;;0.10;0.10;;;6.10;99.90;;;;;;5048126;28;20029;-77
2021/12/08 14:17:41;;;;;;;0.50;0.50;;;6.10;99.90;;;;;;5049716;28;20047;-77
2021/12/08 14:20:28;;;;;;;0.10;0.10;;;6.10;99.90;;;;;;5049135;28;20021;-77